KRBD/RBD METAR and TAF weather

Enter ICAO airport designator
Station Type Date Time Source
KRBD METAR 2021/09/20 04:53 UTC NOAA

KRBD 200453Z AUTO 15008KT 10SM CLR 26/21 A2986 RMK AO2 SLP102 T02610206


Station Type Date Time Source
KRBD Decoded METAR 2021/09/20 04:53 UTC NOAA

DALLAS EXECUTIVE AIRPORT, TX, United States (KRBD) 32-41N 096-52W 203M
Sep 20, 2021 - 12:53 AM EDT / 2021.09.20 0453 UTC
Wind: from the SSE (150 degrees) at 9 MPH (8 KT):0
Visibility: 10 mile(s):0
Sky conditions: clear
Temperature: 79.0 F (26.1 C)
Dew Point: 69.1 F (20.6 C)
Relative Humidity: 71%
Pressure (altimeter): 29.86 in. Hg (1011 hPa)
ob: KRBD 200453Z AUTO 15008KT 10SM CLR 26/21 A2986 RMK AO2 SLP102 T02610206
cycle: 5

Station Type Date Time Source
KRBD TAF UTC NOAA

Error!

Example: see airport list